sensor_id;sensor_type;location;lat;lon;timestamp;pressure;altitude;pressure_sealevel;temperature;humidity
68137;BME280;54939;50.826;9.030;2023-05-03T00:00:13;99728.03;;;16.66;51.77
68137;BME280;54939;50.826;9.030;2023-05-03T00:00:45;99727.84;;;16.67;51.98
68137;BME280;54939;50.826;9.030;2023-05-03T00:01:15;99719.09;;;16.65;51.95
68137;BME280;54939;50.826;9.030;2023-05-03T00:01:46;99727.84;;;16.67;51.71
68137;BME280;54939;50.826;9.030;2023-05-03T00:02:16;99721.59;;;16.67;51.77
68137;BME280;54939;50.826;9.030;2023-05-03T00:02:46;99721.78;;;16.65;51.78
68137;BME280;54939;50.826;9.030;2023-05-03T00:03:16;99723.47;;;16.66;51.80
68137;BME280;54939;50.826;9.030;2023-05-03T00:03:51;99719.94;;;16.66;51.87
68137;BME280;54939;50.826;9.030;2023-05-03T00:04:22;99726.19;;;16.66;51.88
68137;BME280;54939;50.826;9.030;2023-05-03T00:04:53;99720.94;;;16.65;51.96
68137;BME280;54939;50.826;9.030;2023-05-03T00:05:24;99729.03;;;16.65;51.88
68137;BME280;54939;50.826;9.030;2023-05-03T00:05:54;99720.94;;;16.65;51.84
68137;BME280;54939;50.826;9.030;2023-05-03T00:06:24;99715.56;;;16.65;51.74
68137;BME280;54939;50.826;9.030;2023-05-03T00:06:55;99720.09;;;16.64;52.04
68137;BME280;54939;50.826;9.030;2023-05-03T00:07:26;99722.78;;;16.64;51.82
68137;BME280;54939;50.826;9.030;2023-05-03T00:07:56;99722.78;;;16.64;51.92
68137;BME280;54939;50.826;9.030;2023-05-03T00:08:26;99719.25;;;16.64;51.94
68137;BME280;54939;50.826;9.030;2023-05-03T00:08:56;99716.56;;;16.64;51.75
68137;BME280;54939;50.826;9.030;2023-05-03T00:09:26;99720.94;;;16.65;51.83
68137;BME280;54939;50.826;9.030;2023-05-03T00:09:56;99717.41;;;16.64;51.78
68137;BME280;54939;50.826;9.030;2023-05-03T00:10:27;99721.09;;;16.63;52.00
68137;BME280;54939;50.826;9.030;2023-05-03T00:10:59;99721.94;;;16.64;52.01
68137;BME280;54939;50.826;9.030;2023-05-03T00:11:30;99722.78;;;16.64;51.81
68137;BME280;54939;50.826;9.030;2023-05-03T00:12:00;99724.66;;;16.64;51.78
68137;BME280;54939;50.826;9.030;2023-05-03T00:12:30;99721.09;;;16.63;51.76
68137;BME280;54939;50.826;9.030;2023-05-03T00:13:01;99716.56;;;16.64;51.77
68137;BME280;54939;50.826;9.030;2023-05-03T00:13:31;99715.72;;;16.63;51.92
68137;BME280;54939;50.826;9.030;2023-05-03T00:14:01;99720.25;;;16.63;51.83
68137;BME280;54939;50.826;9.030;2023-05-03T00:14:31;99721.25;;;16.62;51.93
68137;BME280;54939;50.826;9.030;2023-05-03T00:15:01;99720.25;;;16.63;51.75
68137;BME280;54939;50.826;9.030;2023-05-03T00:15:32;99719.25;;;16.64;51.77
68137;BME280;54939;50.826;9.030;2023-05-03T00:16:02;99717.56;;;16.63;51.94
68137;BME280;54939;50.826;9.030;2023-05-03T00:16:32;99726.50;;;16.63;51.89
68137;BME280;54939;50.826;9.030;2023-05-03T00:17:02;99721.09;;;16.63;51.90
68137;BME280;54939;50.826;9.030;2023-05-03T00:17:33;99720.41;;;16.61;51.74
68137;BME280;54939;50.826;9.030;2023-05-03T00:18:03;99725.66;;;16.63;51.78
68137;BME280;54939;50.826;9.030;2023-05-03T00:18:33;99720.41;;;16.61;51.87
68137;BME280;54939;50.826;9.030;2023-05-03T00:19:03;99722.13;;;16.62;51.98
68137;BME280;54939;50.826;9.030;2023-05-03T00:19:33;99725.81;;;16.61;51.91
68137;BME280;54939;50.826;9.030;2023-05-03T00:20:04;99723.13;;;16.61;51.90
68137;BME280;54939;50.826;9.030;2023-05-03T00:20:35;99727.50;;;16.62;51.93
68137;BME280;54939;50.826;9.030;2023-05-03T00:21:05;99720.41;;;16.61;51.97
68137;BME280;54939;50.826;9.030;2023-05-03T00:21:36;99718.72;;;16.60;51.88
68137;BME280;54939;50.826;9.030;2023-05-03T00:22:06;99720.41;;;16.61;51.92
68137;BME280;54939;50.826;9.030;2023-05-03T00:22:37;99718.03;;;16.58;51.90
68137;BME280;54939;50.826;9.030;2023-05-03T00:23:08;99721.44;;;16.60;51.85
68137;BME280;54939;50.826;9.030;2023-05-03T00:23:38;99716.88;;;16.61;51.81
68137;BME280;54939;50.826;9.030;2023-05-03T00:24:08;99717.84;;;16.60;51.88
68137;BME280;54939;50.826;9.030;2023-05-03T00:24:38;99718.72;;;16.60;51.74
68137;BME280;54939;50.826;9.030;2023-05-03T00:25:08;99724.13;;;16.60;51.81
68137;BME280;54939;50.826;9.030;2023-05-03T00:25:39;99722.44;;;16.59;51.74
68137;BME280;54939;50.826;9.030;2023-05-03T00:26:09;99714.34;;;16.59;51.83
68137;BME280;54939;50.826;9.030;2023-05-03T00:26:39;99717.03;;;16.59;51.94
68137;BME280;54939;50.826;9.030;2023-05-03T00:27:09;99718.88;;;16.59;51.91
68137;BME280;54939;50.826;9.030;2023-05-03T00:27:40;99719.72;;;16.59;51.83
68137;BME280;54939;50.826;9.030;2023-05-03T00:28:10;99722.44;;;16.59;51.92
68137;BME280;54939;50.826;9.030;2023-05-03T00:28:40;99720.56;;;16.60;51.90
68137;BME280;54939;50.826;9.030;2023-05-03T00:29:10;99722.44;;;16.59;51.86
68137;BME280;54939;50.826;9.030;2023-05-03T00:29:40;99717.03;;;16.59;51.81
68137;BME280;54939;50.826;9.030;2023-05-03T00:30:10;99723.25;;;16.60;51.79
68137;BME280;54939;50.826;9.030;2023-05-03T00:30:41;99720.56;;;16.60;51.86
68137;BME280;54939;50.826;9.030;2023-05-03T00:31:12;99720.56;;;16.60;51.88
68137;BME280;54939;50.826;9.030;2023-05-03T00:31:42;99725.94;;;16.60;51.72
68137;BME280;54939;50.826;9.030;2023-05-03T00:32:13;99729.50;;;16.60;51.73
68137;BME280;54939;50.826;9.030;2023-05-03T00:32:43;99727.81;;;16.59;51.88
68137;BME280;54939;50.826;9.030;2023-05-03T00:33:13;99721.59;;;16.59;51.96
68137;BME280;54939;50.826;9.030;2023-05-03T00:33:44;99727.81;;;16.59;52.02
68137;BME280;54939;50.826;9.030;2023-05-03T00:34:14;99723.44;;;16.58;51.83
68137;BME280;54939;50.826;9.030;2023-05-03T00:34:45;99726.97;;;16.59;51.95
68137;BME280;54939;50.826;9.030;2023-05-03T00:35:15;99731.53;;;16.58;51.74
68137;BME280;54939;50.826;9.030;2023-05-03T00:35:45;99729.69;;;16.59;51.68
68137;BME280;54939;50.826;9.030;2023-05-03T00:36:15;99728.81;;;16.58;51.74
68137;BME280;54939;50.826;9.030;2023-05-03T00:36:45;99735.91;;;16.59;51.77
68137;BME280;54939;50.826;9.030;2023-05-03T00:37:16;99734.03;;;16.60;51.76
68137;BME280;54939;50.826;9.030;2023-05-03T00:37:46;99729.69;;;16.59;51.74
68137;BME280;54939;50.826;9.030;2023-05-03T00:38:16;99731.53;;;16.58;51.72
68137;BME280;54939;50.826;9.030;2023-05-03T00:38:46;99732.38;;;16.59;51.80
68137;BME280;54939;50.826;9.030;2023-05-03T00:39:16;99728.81;;;16.58;51.69
68137;BME280;54939;50.826;9.030;2023-05-03T00:39:46;99736.06;;;16.58;51.74
68137;BME280;54939;50.826;9.030;2023-05-03T00:40:17;99737.06;;;16.57;51.70
68137;BME280;54939;50.826;9.030;2023-05-03T00:40:52;99729.84;;;16.57;51.94
68137;BME280;54939;50.826;9.030;2023-05-03T00:41:22;99721.75;;;16.57;51.89
68137;BME280;54939;50.826;9.030;2023-05-03T00:41:55;99732.53;;;16.57;51.99
68137;BME280;54939;50.826;9.030;2023-05-03T00:42:25;99732.53;;;16.57;51.79
68137;BME280;54939;50.826;9.030;2023-05-03T00:42:55;99727.13;;;16.57;51.95
68137;BME280;54939;50.826;9.030;2023-05-03T00:43:25;99725.44;;;16.56;51.95
68137;BME280;54939;50.826;9.030;2023-05-03T00:43:56;99724.59;;;16.55;51.89
68137;BME280;54939;50.826;9.030;2023-05-03T00:44:26;99710.13;;;16.57;51.94
68137;BME280;54939;50.826;9.030;2023-05-03T00:44:56;99718.22;;;16.57;51.90
68137;BME280;54939;50.826;9.030;2023-05-03T00:45:27;99721.75;;;16.57;51.95
68137;BME280;54939;50.826;9.030;2023-05-03T00:45:58;99717.34;;;16.56;51.78
68137;BME280;54939;50.826;9.030;2023-05-03T00:46:30;99711.97;;;16.56;51.87
68137;BME280;54939;50.826;9.030;2023-05-03T00:47:00;99717.34;;;16.56;51.79
68137;BME280;54939;50.826;9.030;2023-05-03T00:47:31;99714.66;;;16.56;51.94
68137;BME280;54939;50.826;9.030;2023-05-03T00:48:01;99712.13;;;16.54;51.60
68137;BME280;54939;50.826;9.030;2023-05-03T00:48:32;99712.13;;;16.54;51.76
68137;BME280;54939;50.826;9.030;2023-05-03T00:49:03;99712.97;;;16.55;52.00
68137;BME280;54939;50.826;9.030;2023-05-03T00:49:33;99717.53;;;16.54;51.79
68137;BME280;54939;50.826;9.030;2023-05-03T00:50:04;99714.81;;;16.54;51.87
68137;BME280;54939;50.826;9.030;2023-05-03T00:50:35;99712.28;;;16.53;51.90
68137;BME280;54939;50.826;9.030;2023-05-03T00:51:05;99716.69;;;16.54;51.90
68137;BME280;54939;50.826;9.030;2023-05-03T00:51:36;99710.44;;;16.53;51.86
68137;BME280;54939;50.826;9.030;2023-05-03T00:52:07;99716.69;;;16.54;51.92
68137;BME280;54939;50.826;9.030;2023-05-03T00:52:38;99713.31;;;16.52;51.78
68137;BME280;54939;50.826;9.030;2023-05-03T00:53:08;99715.84;;;16.53;51.91
68137;BME280;54939;50.826;9.030;2023-05-03T00:53:38;99710.44;;;16.53;51.71
68137;BME280;54939;50.826;9.030;2023-05-03T00:54:09;99712.28;;;16.53;51.94
68137;BME280;54939;50.826;9.030;2023-05-03T00:54:40;99705.03;;;16.53;51.79
68137;BME280;54939;50.826;9.030;2023-05-03T00:55:10;99709.59;;;16.53;51.86
68137;BME280;54939;50.826;9.030;2023-05-03T00:55:40;99710.63;;;16.52;51.96
68137;BME280;54939;50.826;9.030;2023-05-03T00:56:11;99716.03;;;16.52;51.85
68137;BME280;54939;50.826;9.030;2023-05-03T00:56:42;99717.69;;;16.53;51.73
68137;BME280;54939;50.826;9.030;2023-05-03T00:57:13;99714.19;;;16.52;51.83
68137;BME280;54939;50.826;9.030;2023-05-03T00:57:43;99713.31;;;16.52;51.86
68137;BME280;54939;50.826;9.030;2023-05-03T00:58:13;99719.56;;;16.52;51.88
68137;BME280;54939;50.826;9.030;2023-05-03T00:58:44;99719.56;;;16.52;51.73
68137;BME280;54939;50.826;9.030;2023-05-03T00:59:14;99716.03;;;16.52;51.65
68137;BME280;54939;50.826;9.030;2023-05-03T00:59:44;99723.06;;;16.53;51.85
68137;BME280;54939;50.826;9.030;2023-05-03T01:00:15;99716.03;;;16.52;51.82
68137;BME280;54939;50.826;9.030;2023-05-03T01:00:47;99714.19;;;16.52;51.80
68137;BME280;54939;50.826;9.030;2023-05-03T01:01:17;99720.38;;;16.53;51.88
68137;BME280;54939;50.826;9.030;2023-05-03T01:01:48;99720.56;;;16.51;51.70
68137;BME280;54939;50.826;9.030;2023-05-03T01:02:19;99721.41;;;16.52;51.84
68137;BME280;54939;50.826;9.030;2023-05-03T01:02:50;99719.72;;;16.51;51.75
68137;BME280;54939;50.826;9.030;2023-05-03T01:03:20;99720.56;;;16.51;51.86
68137;BME280;54939;50.826;9.030;2023-05-03T01:03:51;99723.25;;;16.51;51.70
68137;BME280;54939;50.826;9.030;2023-05-03T01:04:21;99714.34;;;16.51;51.83
68137;BME280;54939;50.826;9.030;2023-05-03T01:04:55;99722.41;;;16.51;51.73
68137;BME280;54939;50.826;9.030;2023-05-03T01:05:26;99716.19;;;16.50;51.91
68137;BME280;54939;50.826;9.030;2023-05-03T01:06:12;99717.19;;;16.49;51.78
68137;BME280;54939;50.826;9.030;2023-05-03T01:08:14;99709.94;;;16.50;51.82
68137;BME280;54939;50.826;9.030;2023-05-03T01:08:54;99724.28;;;16.50;51.72
68137;BME280;54939;50.826;9.030;2023-05-03T01:09:32;99711.78;;;16.49;51.85
68137;BME280;54939;50.826;9.030;2023-05-03T01:10:38;99724.28;;;16.50;51.62
68137;BME280;54939;50.826;9.030;2023-05-03T01:11:14;99725.28;;;16.49;51.82
68137;BME280;54939;50.826;9.030;2023-05-03T01:12:29;99721.72;;;16.49;51.68
68137;BME280;54939;50.826;9.030;2023-05-03T01:13:09;99723.41;;;16.50;51.75
68137;BME280;54939;50.826;9.030;2023-05-03T01:13:46;99714.50;;;16.49;51.79
68137;BME280;54939;50.826;9.030;2023-05-03T01:15:16;99719.19;;;16.47;51.64
68137;BME280;54939;50.826;9.030;2023-05-03T01:15:53;99721.72;;;16.49;51.75
68137;BME280;54939;50.826;9.030;2023-05-03T01:16:38;99715.50;;;16.48;51.68
68137;BME280;54939;50.826;9.030;2023-05-03T01:17:13;99714.66;;;16.48;51.67
68137;BME280;54939;50.826;9.030;2023-05-03T01:18:01;99721.91;;;16.47;51.84
68137;BME280;54939;50.826;9.030;2023-05-03T01:18:34;99717.34;;;16.48;51.66
68137;BME280;54939;50.826;9.030;2023-05-03T01:19:12;99720.03;;;16.48;51.78
68137;BME280;54939;50.826;9.030;2023-05-03T01:19:48;99716.34;;;16.49;51.79
68137;BME280;54939;50.826;9.030;2023-05-03T01:20:21;99722.75;;;16.48;51.75
68137;BME280;54939;50.826;9.030;2023-05-03T01:20:53;99715.66;;;16.47;51.65
68137;BME280;54939;50.826;9.030;2023-05-03T01:21:24;99713.97;;;16.46;51.85
68137;BME280;54939;50.826;9.030;2023-05-03T01:22:49;99716.66;;;16.46;51.87
68137;BME280;54939;50.826;9.030;2023-05-03T01:23:27;99713.16;;;16.45;51.67
68137;BME280;54939;50.826;9.030;2023-05-03T01:24:02;99713.16;;;16.45;51.73
68137;BME280;54939;50.826;9.030;2023-05-03T01:24:33;99711.28;;;16.46;51.61
68137;BME280;54939;50.826;9.030;2023-05-03T01:25:06;99707.75;;;16.45;51.64
68137;BME280;54939;50.826;9.030;2023-05-03T01:25:36;99708.56;;;16.46;51.73
68137;BME280;54939;50.826;9.030;2023-05-03T01:26:19;99707.75;;;16.45;51.83
68137;BME280;54939;50.826;9.030;2023-05-03T01:26:50;99705.88;;;16.46;51.89
68137;BME280;54939;50.826;9.030;2023-05-03T01:27:20;99707.75;;;16.45;51.87
68137;BME280;54939;50.826;9.030;2023-05-03T01:27:50;99706.91;;;16.45;51.72
68137;BME280;54939;50.826;9.030;2023-05-03T01:28:20;99701.53;;;16.45;51.67
68137;BME280;54939;50.826;9.030;2023-05-03T01:28:51;99706.91;;;16.45;51.78
68137;BME280;54939;50.826;9.030;2023-05-03T01:29:21;99708.78;;;16.44;51.68
68137;BME280;54939;50.826;9.030;2023-05-03T01:29:51;99708.56;;;16.46;51.88
68137;BME280;54939;50.826;9.030;2023-05-03T01:30:22;99712.31;;;16.45;51.80
68137;BME280;54939;50.826;9.030;2023-05-03T01:30:53;99712.31;;;16.45;51.72
68137;BME280;54939;50.826;9.030;2023-05-03T01:31:38;99705.22;;;16.44;51.71
68137;BME280;54939;50.826;9.030;2023-05-03T01:32:14;99706.06;;;16.44;51.74
68137;BME280;54939;50.826;9.030;2023-05-03T01:33:35;99710.63;;;16.44;51.88
68137;BME280;54939;50.826;9.030;2023-05-03T01:35:01;99705.22;;;16.44;51.70
68137;BME280;54939;50.826;9.030;2023-05-03T01:35:40;99697.13;;;16.44;51.71
68137;BME280;54939;50.826;9.030;2023-05-03T01:36:19;99700.84;;;16.43;51.64
68137;BME280;54939;50.826;9.030;2023-05-03T01:36:52;99704.53;;;16.42;51.64
68137;BME280;54939;50.826;9.030;2023-05-03T01:37:24;99707.06;;;16.43;51.68
68137;BME280;54939;50.826;9.030;2023-05-03T01:37:55;99702.69;;;16.42;51.84
68137;BME280;54939;50.826;9.030;2023-05-03T01:38:26;99703.53;;;16.43;51.53
68137;BME280;54939;50.826;9.030;2023-05-03T01:39:05;99702.69;;;16.42;51.78
68137;BME280;54939;50.826;9.030;2023-05-03T01:39:58;99701.84;;;16.42;51.58
68137;BME280;54939;50.826;9.030;2023-05-03T01:40:27;99700.16;;;16.41;51.48
68137;BME280;54939;50.826;9.030;2023-05-03T01:40:59;99703.69;;;16.41;51.72
68137;BME280;54939;50.826;9.030;2023-05-03T01:41:30;99701.00;;;16.41;51.63
68137;BME280;54939;50.826;9.030;2023-05-03T01:42:02;99695.78;;;16.40;51.89
68137;BME280;54939;50.826;9.030;2023-05-03T01:42:34;99702.00;;;16.40;51.74
68137;BME280;54939;50.826;9.030;2023-05-03T01:43:05;99695.63;;;16.41;51.76
68137;BME280;54939;50.826;9.030;2023-05-03T01:43:37;99708.25;;;16.41;51.62
68137;BME280;54939;50.826;9.030;2023-05-03T01:44:08;99701.00;;;16.41;51.86
68137;BME280;54939;50.826;9.030;2023-05-03T01:44:39;99701.16;;;16.40;51.81
68137;BME280;54939;50.826;9.030;2023-05-03T01:45:10;99697.63;;;16.39;51.79
68137;BME280;54939;50.826;9.030;2023-05-03T01:45:41;99706.56;;;16.40;51.68
68137;BME280;54939;50.826;9.030;2023-05-03T01:46:11;99703.84;;;16.40;51.68
68137;BME280;54939;50.826;9.030;2023-05-03T01:46:43;99703.84;;;16.40;51.59
68137;BME280;54939;50.826;9.030;2023-05-03T01:47:13;99705.53;;;16.41;51.77
68137;BME280;54939;50.826;9.030;2023-05-03T01:47:44;99706.56;;;16.40;51.73
68137;BME280;54939;50.826;9.030;2023-05-03T01:48:15;99710.94;;;16.41;51.69
68137;BME280;54939;50.826;9.030;2023-05-03T01:48:46;99706.56;;;16.40;51.65
68137;BME280;54939;50.826;9.030;2023-05-03T01:49:16;99703.84;;;16.40;51.58
68137;BME280;54939;50.826;9.030;2023-05-03T01:49:46;99705.72;;;16.39;51.67
68137;BME280;54939;50.826;9.030;2023-05-03T01:50:17;99700.31;;;16.39;51.56
68137;BME280;54939;50.826;9.030;2023-05-03T01:50:47;99710.25;;;16.39;51.65
68137;BME280;54939;50.826;9.030;2023-05-03T01:51:17;99712.13;;;16.38;51.63
68137;BME280;54939;50.826;9.030;2023-05-03T01:51:47;99710.25;;;16.39;51.69
68137;BME280;54939;50.826;9.030;2023-05-03T01:52:17;99707.56;;;16.39;51.70
68137;BME280;54939;50.826;9.030;2023-05-03T01:52:47;99706.75;;;16.38;51.64
68137;BME280;54939;50.826;9.030;2023-05-03T01:53:20;99706.75;;;16.38;51.68
68137;BME280;54939;50.826;9.030;2023-05-03T01:53:50;99706.75;;;16.38;51.71
68137;BME280;54939;50.826;9.030;2023-05-03T01:54:20;99711.28;;;16.38;51.79
68137;BME280;54939;50.826;9.030;2023-05-03T01:54:51;99703.22;;;16.38;51.75
68137;BME280;54939;50.826;9.030;2023-05-03T01:55:21;99707.75;;;16.37;51.62
68137;BME280;54939;50.826;9.030;2023-05-03T01:55:51;99702.34;;;16.37;51.80
68137;BME280;54939;50.826;9.030;2023-05-03T01:56:21;99711.28;;;16.38;51.68
68137;BME280;54939;50.826;9.030;2023-05-03T01:56:52;99707.75;;;16.37;51.71
68137;BME280;54939;50.826;9.030;2023-05-03T01:57:22;99706.91;;;16.37;51.67
68137;BME280;54939;50.826;9.030;2023-05-03T01:57:52;99703.38;;;16.36;51.83
68137;BME280;54939;50.826;9.030;2023-05-03T01:58:22;99703.22;;;16.38;51.58
68137;BME280;54939;50.826;9.030;2023-05-03T01:58:52;99704.22;;;16.37;51.85
68137;BME280;54939;50.826;9.030;2023-05-03T01:59:22;99704.22;;;16.37;51.72
68137;BME280;54939;50.826;9.030;2023-05-03T01:59:53;99706.91;;;16.37;51.81
68137;BME280;54939;50.826;9.030;2023-05-03T02:00:23;99704.38;;;16.35;51.70
68137;BME280;54939;50.826;9.030;2023-05-03T02:00:53;99701.50;;;16.37;51.74
68137;BME280;54939;50.826;9.030;2023-05-03T02:01:23;99707.91;;;16.36;51.76
68137;BME280;54939;50.826;9.030;2023-05-03T02:01:54;99709.75;;;16.35;51.54
68137;BME280;54939;50.826;9.030;2023-05-03T02:02:24;99704.38;;;16.35;51.75
68137;BME280;54939;50.826;9.030;2023-05-03T02:02:55;99709.75;;;16.35;51.81
68137;BME280;54939;50.826;9.030;2023-05-03T02:03:25;99707.06;;;16.35;51.73
68137;BME280;54939;50.826;9.030;2023-05-03T02:03:56;99708.91;;;16.35;51.72
68137;BME280;54939;50.826;9.030;2023-05-03T02:04:26;99704.38;;;16.35;51.58
68137;BME280;54939;50.826;9.030;2023-05-03T02:04:56;99708.91;;;16.35;51.76
68137;BME280;54939;50.826;9.030;2023-05-03T02:05:26;99706.22;;;16.35;51.52
68137;BME280;54939;50.826;9.030;2023-05-03T02:05:56;99708.91;;;16.35;51.65
68137;BME280;54939;50.826;9.030;2023-05-03T02:06:26;99705.38;;;16.34;51.66
68137;BME280;54939;50.826;9.030;2023-05-03T02:06:57;99709.75;;;16.35;51.73
68137;BME280;54939;50.826;9.030;2023-05-03T02:07:27;99708.06;;;16.34;51.54
68137;BME280;54939;50.826;9.030;2023-05-03T02:07:57;99710.75;;;16.34;51.76
68137;BME280;54939;50.826;9.030;2023-05-03T02:08:27;99708.91;;;16.35;51.65
68137;BME280;54939;50.826;9.030;2023-05-03T02:08:57;99711.59;;;16.35;51.58
68137;BME280;54939;50.826;9.030;2023-05-03T02:09:27;99705.38;;;16.34;51.71
68137;BME280;54939;50.826;9.030;2023-05-03T02:09:58;99709.06;;;16.33;51.55
68137;BME280;54939;50.826;9.030;2023-05-03T02:10:28;99709.06;;;16.33;51.78
68137;BME280;54939;50.826;9.030;2023-05-03T02:10:58;99712.59;;;16.34;51.58
68137;BME280;54939;50.826;9.030;2023-05-03T02:11:28;99711.78;;;16.33;51.60
68137;BME280;54939;50.826;9.030;2023-05-03T02:11:58;99703.88;;;16.32;51.64
68137;BME280;54939;50.826;9.030;2023-05-03T02:12:28;99711.78;;;16.33;51.49
68137;BME280;54939;50.826;9.030;2023-05-03T02:12:59;99715.31;;;16.34;51.69
68137;BME280;54939;50.826;9.030;2023-05-03T02:13:29;99706.56;;;16.32;51.66
68137;BME280;54939;50.826;9.030;2023-05-03T02:13:59;99708.22;;;16.33;51.84
68137;BME280;54939;50.826;9.030;2023-05-03T02:14:29;99710.28;;;16.31;51.54
68137;BME280;54939;50.826;9.030;2023-05-03T02:15:01;99696.78;;;16.31;51.62
68137;BME280;54939;50.826;9.030;2023-05-03T02:15:32;99707.56;;;16.31;51.63
68137;BME280;54939;50.826;9.030;2023-05-03T02:16:02;99710.91;;;16.33;51.79
68137;BME280;54939;50.826;9.030;2023-05-03T02:16:32;99703.03;;;16.31;51.51
68137;BME280;54939;50.826;9.030;2023-05-03T02:17:02;99711.13;;;16.31;51.54
68137;BME280;54939;50.826;9.030;2023-05-03T02:17:32;99703.19;;;16.30;51.74
68137;BME280;54939;50.826;9.030;2023-05-03T02:18:03;99709.41;;;16.30;51.56
68137;BME280;54939;50.826;9.030;2023-05-03T02:18:34;99703.19;;;16.30;51.69
68137;BME280;54939;50.826;9.030;2023-05-03T02:19:05;99711.28;;;16.30;51.67
68137;BME280;54939;50.826;9.030;2023-05-03T02:19:36;99699.66;;;16.29;51.67
68137;BME280;54939;50.826;9.030;2023-05-03T02:20:07;99709.41;;;16.30;51.58
68137;BME280;54939;50.826;9.030;2023-05-03T02:20:44;99707.72;;;16.29;51.69
68137;BME280;54939;50.826;9.030;2023-05-03T02:21:14;99714.97;;;16.29;51.55
68137;BME280;54939;50.826;9.030;2023-05-03T02:21:45;99715.81;;;16.29;51.73
68137;BME280;54939;50.826;9.030;2023-05-03T02:22:15;99713.13;;;16.29;51.66
68137;BME280;54939;50.826;9.030;2023-05-03T02:22:45;99710.44;;;16.29;51.63
68137;BME280;54939;50.826;9.030;2023-05-03T02:23:15;99714.97;;;16.29;51.64
68137;BME280;54939;50.826;9.030;2023-05-03T02:23:45;99712.28;;;16.29;51.68
68137;BME280;54939;50.826;9.030;2023-05-03T02:24:16;99714.97;;;16.29;51.46
68137;BME280;54939;50.826;9.030;2023-05-03T02:24:46;99723.06;;;16.29;51.42
68137;BME280;54939;50.826;9.030;2023-05-03T02:25:16;99716.81;;;16.28;51.54
68137;BME280;54939;50.826;9.030;2023-05-03T02:25:46;99710.59;;;16.28;51.63
68137;BME280;54939;50.826;9.030;2023-05-03T02:26:17;99717.81;;;16.27;51.83
68137;BME280;54939;50.826;9.030;2023-05-03T02:26:47;99711.44;;;16.28;51.58
68137;BME280;54939;50.826;9.030;2023-05-03T02:27:17;99714.13;;;16.28;51.65
68137;BME280;54939;50.826;9.030;2023-05-03T02:27:48;99713.28;;;16.28;51.45
68137;BME280;54939;50.826;9.030;2023-05-03T02:28:18;99716.81;;;16.28;51.50
68137;BME280;54939;50.826;9.030;2023-05-03T02:28:48;99710.59;;;16.28;51.56
68137;BME280;54939;50.826;9.030;2023-05-03T02:29:18;99710.59;;;16.28;51.55
68137;BME280;54939;50.826;9.030;2023-05-03T02:29:48;99714.28;;;16.27;51.54
68137;BME280;54939;50.826;9.030;2023-05-03T02:30:19;99708.03;;;16.26;51.64
68137;BME280;54939;50.826;9.030;2023-05-03T02:30:49;99709.91;;;16.26;51.59
68137;BME280;54939;50.826;9.030;2023-05-03T02:31:19;99712.44;;;16.27;51.58
68137;BME280;54939;50.826;9.030;2023-05-03T02:31:49;99710.75;;;16.26;51.65
68137;BME280;54939;50.826;9.030;2023-05-03T02:32:19;99720.69;;;16.26;51.59
68137;BME280;54939;50.826;9.030;2023-05-03T02:32:50;99708.91;;;16.27;51.63
68137;BME280;54939;50.826;9.030;2023-05-03T02:33:21;99709.91;;;16.26;51.64
68137;BME280;54939;50.826;9.030;2023-05-03T02:33:51;99711.75;;;16.25;51.66
68137;BME280;54939;50.826;9.030;2023-05-03T02:34:22;99717.13;;;16.25;51.48
68137;BME280;54939;50.826;9.030;2023-05-03T02:34:52;99721.53;;;16.26;51.62
68137;BME280;54939;50.826;9.030;2023-05-03T02:35:22;99719.00;;;16.25;51.65
68137;BME280;54939;50.826;9.030;2023-05-03T02:35:52;99723.38;;;16.26;51.67
68137;BME280;54939;50.826;9.030;2023-05-03T02:36:23;99724.41;;;16.25;51.48
68137;BME280;54939;50.826;9.030;2023-05-03T02:36:53;99721.72;;;16.25;51.61
68137;BME280;54939;50.826;9.030;2023-05-03T02:37:24;99732.50;;;16.25;51.66
68137;BME280;54939;50.826;9.030;2023-05-03T02:37:54;99724.41;;;16.25;51.51
68137;BME280;54939;50.826;9.030;2023-05-03T02:38:24;99732.50;;;16.25;51.42
68137;BME280;54939;50.826;9.030;2023-05-03T02:38:54;99730.59;;;16.25;51.33
68137;BME280;54939;50.826;9.030;2023-05-03T02:39:25;99730.78;;;16.24;51.38
68137;BME280;54939;50.826;9.030;2023-05-03T02:39:55;99731.66;;;16.24;51.65
68137;BME280;54939;50.826;9.030;2023-05-03T02:40:25;99730.78;;;16.24;51.43
68137;BME280;54939;50.826;9.030;2023-05-03T02:40:55;99733.50;;;16.24;51.66
68137;BME280;54939;50.826;9.030;2023-05-03T02:41:26;99732.66;;;16.23;51.49
68137;BME280;54939;50.826;9.030;2023-05-03T02:41:56;99738.03;;;16.23;51.57
68137;BME280;54939;50.826;9.030;2023-05-03T02:42:26;99729.94;;;16.23;51.49
68137;BME280;54939;50.826;9.030;2023-05-03T02:42:56;99726.41;;;16.23;51.62
68137;BME280;54939;50.826;9.030;2023-05-03T02:43:26;99738.03;;;16.23;51.47
68137;BME280;54939;50.826;9.030;2023-05-03T02:43:56;99733.66;;;16.22;51.60
68137;BME280;54939;50.826;9.030;2023-05-03T02:44:27;99733.66;;;16.22;51.60
68137;BME280;54939;50.826;9.030;2023-05-03T02:44:57;99733.66;;;16.22;51.48
68137;BME280;54939;50.826;9.030;2023-05-03T02:45:27;99729.09;;;16.23;51.74
68137;BME280;54939;50.826;9.030;2023-05-03T02:45:57;99729.94;;;16.23;51.63
68137;BME280;54939;50.826;9.030;2023-05-03T02:46:28;99735.50;;;16.22;51.45
68137;BME280;54939;50.826;9.030;2023-05-03T02:46:58;99732.81;;;16.22;51.45
68137;BME280;54939;50.826;9.030;2023-05-03T02:47:28;99732.81;;;16.22;51.55
68137;BME280;54939;50.826;9.030;2023-05-03T02:47:58;99735.50;;;16.22;51.60
68137;BME280;54939;50.826;9.030;2023-05-03T02:48:28;99732.81;;;16.22;51.46
68137;BME280;54939;50.826;9.030;2023-05-03T02:48:59;99730.13;;;16.22;51.44
68137;BME280;54939;50.826;9.030;2023-05-03T02:49:29;99726.56;;;16.21;51.47
68137;BME280;54939;50.826;9.030;2023-05-03T02:49:59;99730.13;;;16.22;51.55
68137;BME280;54939;50.826;9.030;2023-05-03T02:50:29;99730.13;;;16.22;51.35
68137;BME280;54939;50.826;9.030;2023-05-03T02:51:00;99731.13;;;16.21;51.51
68137;BME280;54939;50.826;9.030;2023-05-03T02:51:30;99737.34;;;16.21;51.61